sensor_id;sensor_type;location;lat;lon;timestamp;pressure;altitude;pressure_sealevel;temperature;humidity
21520;BME280;10921;53.614;9.882;2023-03-21T00:02:00;101349.09;;;9.86;92.94
21520;BME280;10921;53.614;9.882;2023-03-21T00:04:26;101301.91;;;9.55;92.96
21520;BME280;10921;53.614;9.882;2023-03-21T00:07:03;101323.94;;;9.68;92.81
21520;BME280;10921;53.614;9.882;2023-03-21T00:09:30;101330.59;;;9.73;92.99
21520;BME280;10921;53.614;9.882;2023-03-21T00:11:56;101348.25;;;9.85;92.83
21520;BME280;10921;53.614;9.882;2023-03-21T00:14:27;101347.50;;;9.95;93.52
21520;BME280;10921;53.614;9.882;2023-03-21T00:16:56;101275.19;;;9.45;92.59
21520;BME280;10921;53.614;9.882;2023-03-21T00:19:23;101346.31;;;9.87;93.06
21520;BME280;10921;53.614;9.882;2023-03-21T00:21:51;101340.97;;;9.87;93.24
21520;BME280;10921;53.614;9.882;2023-03-21T00:24:33;101254.47;;;9.37;93.56
21520;BME280;10921;53.614;9.882;2023-03-21T00:27:00;101272.41;;;9.46;93.62
21520;BME280;10921;53.614;9.882;2023-03-21T00:29:47;101296.00;;;9.62;93.61
21520;BME280;10921;53.614;9.882;2023-03-21T00:32:15;101279.78;;;9.43;93.58
21520;BME280;10921;53.614;9.882;2023-03-21T00:34:42;101272.72;;;9.53;93.72
21520;BME280;10921;53.614;9.882;2023-03-21T00:37:27;101252.44;;;9.41;93.47
21520;BME280;10921;53.614;9.882;2023-03-21T00:39:54;101346.06;;;9.91;93.58
21520;BME280;10921;53.614;9.882;2023-03-21T00:42:21;101328.38;;;9.78;93.71
21520;BME280;10921;53.614;9.882;2023-03-21T00:44:47;101305.41;;;9.66;93.55
21520;BME280;10921;53.614;9.882;2023-03-21T00:47:17;101226.31;;;9.24;93.87
21520;BME280;10921;53.614;9.882;2023-03-21T00:49:44;101283.63;;;9.61;93.69
21520;BME280;10921;53.614;9.882;2023-03-21T00:52:10;101279.53;;;9.57;93.60
21520;BME280;10921;53.614;9.882;2023-03-21T00:54:49;101261.22;;;9.52;94.06
21520;BME280;10921;53.614;9.882;2023-03-21T00:57:16;101324.88;;;9.89;94.41
21520;BME280;10921;53.614;9.882;2023-03-21T00:59:45;101285.53;;;9.70;94.20
21520;BME280;10921;53.614;9.882;2023-03-21T01:02:12;101281.06;;;9.71;94.33
21520;BME280;10921;53.614;9.882;2023-03-21T01:04:42;101323.13;;;9.99;95.02
21520;BME280;10921;53.614;9.882;2023-03-21T01:07:08;101262.31;;;9.61;93.94
21520;BME280;10921;53.614;9.882;2023-03-21T01:09:35;101237.91;;;9.45;94.27
21520;BME280;10921;53.614;9.882;2023-03-21T01:12:02;101310.16;;;9.95;94.63
21520;BME280;10921;53.614;9.882;2023-03-21T01:14:28;101252.63;;;9.60;94.29
21520;BME280;10921;53.614;9.882;2023-03-21T01:16:55;101264.34;;;9.69;94.27
21520;BME280;10921;53.614;9.882;2023-03-21T01:19:23;101311.53;;;9.89;94.64
21520;BME280;10921;53.614;9.882;2023-03-21T01:22:13;101276.22;;;9.76;94.49
21520;BME280;10921;53.614;9.882;2023-03-21T01:24:40;101258.28;;;9.67;94.62
21520;BME280;10921;53.614;9.882;2023-03-21T01:27:19;101292.16;;;9.87;94.62
21520;BME280;10921;53.614;9.882;2023-03-21T01:29:45;101307.91;;;9.90;94.76
21520;BME280;10921;53.614;9.882;2023-03-21T01:32:12;101285.63;;;9.80;94.92
21520;BME280;10921;53.614;9.882;2023-03-21T01:34:39;101232.91;;;9.51;94.81
21520;BME280;10921;53.614;9.882;2023-03-21T01:37:05;101287.91;;;9.84;94.89
21520;BME280;10921;53.614;9.882;2023-03-21T01:39:32;101234.81;;;9.61;94.58
21520;BME280;10921;53.614;9.882;2023-03-21T01:42:00;101259.84;;;9.69;94.86
21520;BME280;10921;53.614;9.882;2023-03-21T01:44:27;101307.00;;;10.01;94.82
21520;BME280;10921;53.614;9.882;2023-03-21T01:46:53;101209.31;;;9.47;94.79
21520;BME280;10921;53.614;9.882;2023-03-21T01:49:41;101255.84;;;9.75;94.90
21520;BME280;10921;53.614;9.882;2023-03-21T01:52:14;101267.56;;;9.83;94.90
21520;BME280;10921;53.614;9.882;2023-03-21T01:55:01;101228.38;;;9.63;94.90
21520;BME280;10921;53.614;9.882;2023-03-21T01:57:37;101294.88;;;10.08;94.91
21520;BME280;10921;53.614;9.882;2023-03-21T02:00:19;101295.38;;;10.02;95.06
21520;BME280;10921;53.614;9.882;2023-03-21T02:02:47;101264.53;;;9.88;95.17
21520;BME280;10921;53.614;9.882;2023-03-21T02:05:27;101268.66;;;9.92;95.27
21520;BME280;10921;53.614;9.882;2023-03-21T02:07:58;101273.81;;;9.94;94.88
21520;BME280;10921;53.614;9.882;2023-03-21T02:10:27;101298.38;;;10.08;94.99
21520;BME280;10921;53.614;9.882;2023-03-21T02:12:59;101286.72;;;10.09;95.22
21520;BME280;10921;53.614;9.882;2023-03-21T02:15:35;101256.28;;;9.91;94.92
21520;BME280;10921;53.614;9.882;2023-03-21T02:18:22;101285.03;;;10.08;96.03
21520;BME280;10921;53.614;9.882;2023-03-21T02:21:16;101273.28;;;10.11;95.95
21520;BME280;10921;53.614;9.882;2023-03-21T02:32:30;101270.47;;;10.12;94.99
21520;BME280;10921;53.614;9.882;2023-03-21T02:41:18;101265.63;;;10.17;96.41
21520;BME280;10921;53.614;9.882;2023-03-21T02:44:05;101258.72;;;10.15;95.08
21520;BME280;10921;53.614;9.882;2023-03-21T02:46:49;101280.91;;;10.15;95.45
21520;BME280;10921;53.614;9.882;2023-03-21T02:49:38;101269.38;;;10.15;95.70
21520;BME280;10921;53.614;9.882;2023-03-21T02:52:13;101258.84;;;10.13;95.75
21520;BME280;10921;53.614;9.882;2023-03-21T02:54:58;101230.66;;;10.00;95.43
21520;BME280;10921;53.614;9.882;2023-03-21T02:57:31;101261.25;;;10.16;95.40
21520;BME280;10921;53.614;9.882;2023-03-21T03:00:10;101259.34;;;10.18;95.43
21520;BME280;10921;53.614;9.882;2023-03-21T03:02:42;101272.56;;;10.20;95.25
21520;BME280;10921;53.614;9.882;2023-03-21T03:05:19;101217.22;;;10.01;96.11
21520;BME280;10921;53.614;9.882;2023-03-21T03:13:32;101247.69;;;10.19;96.11
21520;BME280;10921;53.614;9.882;2023-03-21T03:19:25;101211.63;;;10.04;95.85
21520;BME280;10921;53.614;9.882;2023-03-21T03:22:19;101196.13;;;9.98;95.76
21520;BME280;10921;53.614;9.882;2023-03-21T03:27:27;101192.63;;;9.98;95.48
21520;BME280;10921;53.614;9.882;2023-03-21T03:29:59;101228.28;;;10.17;95.41
21520;BME280;10921;53.614;9.882;2023-03-21T03:32:32;101152.19;;;9.72;95.48
21520;BME280;10921;53.614;9.882;2023-03-21T03:35:01;101190.44;;;10.03;95.26
21520;BME280;10921;53.614;9.882;2023-03-21T03:37:53;101193.09;;;10.03;95.56
21520;BME280;10921;53.614;9.882;2023-03-21T03:40:28;101233.56;;;10.29;95.75
21520;BME280;10921;53.614;9.882;2023-03-21T03:43:02;101171.38;;;9.86;95.91
21520;BME280;10921;53.614;9.882;2023-03-21T03:45:35;101217.88;;;10.14;96.11
21520;BME280;10921;53.614;9.882;2023-03-21T03:50:48;101228.78;;;10.23;96.11
21520;BME280;10921;53.614;9.882;2023-03-21T03:53:29;101244.97;;;10.31;97.05
21520;BME280;10921;53.614;9.882;2023-03-21T03:56:01;101241.56;;;10.29;95.83
21520;BME280;10921;53.614;9.882;2023-03-21T03:58:31;101232.41;;;10.21;95.96
21520;BME280;10921;53.614;9.882;2023-03-21T04:01:10;101232.47;;;10.31;96.20
21520;BME280;10921;53.614;9.882;2023-03-21T04:03:39;101193.22;;;10.01;96.19
21520;BME280;10921;53.614;9.882;2023-03-21T04:06:17;101235.41;;;10.28;96.03
21520;BME280;10921;53.614;9.882;2023-03-21T04:08:43;101194.38;;;10.08;96.29
21520;BME280;10921;53.614;9.882;2023-03-21T04:11:12;101226.28;;;10.31;96.40
21520;BME280;10921;53.614;9.882;2023-03-21T04:13:41;101132.16;;;9.77;95.99
21520;BME280;10921;53.614;9.882;2023-03-21T04:16:08;101162.28;;;9.89;96.04
21520;BME280;10921;53.614;9.882;2023-03-21T04:18:35;101195.50;;;10.06;96.01
21520;BME280;10921;53.614;9.882;2023-03-21T04:21:07;101204.53;;;10.14;96.65
21520;BME280;10921;53.614;9.882;2023-03-21T04:23:34;101206.47;;;10.12;96.46
21520;BME280;10921;53.614;9.882;2023-03-21T04:26:02;101234.16;;;10.32;96.41
21520;BME280;10921;53.614;9.882;2023-03-21T04:28:31;101200.56;;;10.09;96.54
21520;BME280;10921;53.614;9.882;2023-03-21T04:30:58;101229.56;;;10.34;96.51
21520;BME280;10921;53.614;9.882;2023-03-21T04:33:34;101177.94;;;10.03;96.35
21520;BME280;10921;53.614;9.882;2023-03-21T04:36:05;101201.53;;;10.19;96.80
21520;BME280;10921;53.614;9.882;2023-03-21T04:38:35;101188.53;;;10.14;96.40
21520;BME280;10921;53.614;9.882;2023-03-21T04:41:02;101214.41;;;10.35;96.65
21520;BME280;10921;53.614;9.882;2023-03-21T04:43:28;101200.13;;;10.25;96.65
21520;BME280;10921;53.614;9.882;2023-03-21T04:45:56;101155.03;;;10.01;96.45
21520;BME280;10921;53.614;9.882;2023-03-21T04:48:22;101216.09;;;10.36;96.47
21520;BME280;10921;53.614;9.882;2023-03-21T04:50:50;101213.41;;;10.36;96.41
21520;BME280;10921;53.614;9.882;2023-03-21T04:53:17;101204.97;;;10.31;96.55
21520;BME280;10921;53.614;9.882;2023-03-21T04:55:43;101217.66;;;10.38;96.62
21520;BME280;10921;53.614;9.882;2023-03-21T04:58:10;101221.84;;;10.41;96.74
21520;BME280;10921;53.614;9.882;2023-03-21T05:00:37;101221.84;;;10.41;96.54
21520;BME280;10921;53.614;9.882;2023-03-21T05:03:05;101202.28;;;10.31;96.36
21520;BME280;10921;53.614;9.882;2023-03-21T05:05:38;101165.75;;;10.10;96.67
21520;BME280;10921;53.614;9.882;2023-03-21T05:08:05;101212.88;;;10.42;96.58
21520;BME280;10921;53.614;9.882;2023-03-21T05:10:32;101160.00;;;10.05;96.75
21520;BME280;10921;53.614;9.882;2023-03-21T05:12:58;101160.00;;;10.05;96.73
21520;BME280;10921;53.614;9.882;2023-03-21T05:15:25;101215.41;;;10.43;96.82
21520;BME280;10921;53.614;9.882;2023-03-21T05:17:51;101213.59;;;10.44;96.46
21520;BME280;10921;53.614;9.882;2023-03-21T05:20:18;101188.38;;;10.27;96.79
21520;BME280;10921;53.614;9.882;2023-03-21T05:22:45;101214.19;;;10.47;96.84
21520;BME280;10921;53.614;9.882;2023-03-21T05:25:15;101217.81;;;10.46;96.68
21520;BME280;10921;53.614;9.882;2023-03-21T05:27:43;101195.00;;;10.33;96.82
21520;BME280;10921;53.614;9.882;2023-03-21T05:30:14;101202.31;;;10.61;97.69
21520;BME280;10921;53.614;9.882;2023-03-21T05:32:41;101199.41;;;10.43;96.35
21520;BME280;10921;53.614;9.882;2023-03-21T05:35:09;101156.06;;;10.20;96.35
21520;BME280;10921;53.614;9.882;2023-03-21T05:37:36;101162.78;;;10.25;96.36
21520;BME280;10921;53.614;9.882;2023-03-21T05:40:05;101177.63;;;10.38;96.58
21520;BME280;10921;53.614;9.882;2023-03-21T05:42:32;101186.63;;;10.37;96.51
21520;BME280;10921;53.614;9.882;2023-03-21T05:45:02;101204.66;;;10.54;96.54
21520;BME280;10921;53.614;9.882;2023-03-21T05:47:28;101172.16;;;10.40;96.54
21520;BME280;10921;53.614;9.882;2023-03-21T05:49:55;101141.63;;;10.23;97.01
21520;BME280;10921;53.614;9.882;2023-03-21T05:52:21;101166.81;;;10.40;96.71
21520;BME280;10921;53.614;9.882;2023-03-21T05:54:48;101198.50;;;10.54;96.88
21520;BME280;10921;53.614;9.882;2023-03-21T05:57:17;101173.44;;;10.45;96.73
21520;BME280;10921;53.614;9.882;2023-03-21T05:59:47;101205.69;;;10.63;96.71
21520;BME280;10921;53.614;9.882;2023-03-21T06:02:13;101178.41;;;10.50;96.78
21520;BME280;10921;53.614;9.882;2023-03-21T06:04:40;101193.19;;;10.64;96.68
21520;BME280;10921;53.614;9.882;2023-03-21T06:07:06;101175.47;;;10.53;96.85
21520;BME280;10921;53.614;9.882;2023-03-21T06:09:33;101112.75;;;10.17;97.09
21520;BME280;10921;53.614;9.882;2023-03-21T06:12:02;101118.31;;;10.25;97.26
21520;BME280;10921;53.614;9.882;2023-03-21T06:14:29;101190.81;;;10.70;96.86
21520;BME280;10921;53.614;9.882;2023-03-21T06:16:55;101137.88;;;10.35;97.03
21520;BME280;10921;53.614;9.882;2023-03-21T06:19:22;101095.19;;;10.14;96.87
21520;BME280;10921;53.614;9.882;2023-03-21T06:21:48;101144.78;;;10.38;96.82
21520;BME280;10921;53.614;9.882;2023-03-21T06:24:15;101185.22;;;10.73;96.89
21520;BME280;10921;53.614;9.882;2023-03-21T06:26:43;101113.56;;;10.29;96.85
21520;BME280;10921;53.614;9.882;2023-03-21T06:29:10;101163.25;;;10.60;97.25
21520;BME280;10921;53.614;9.882;2023-03-21T06:31:36;101086.84;;;10.19;97.10
21520;BME280;10921;53.614;9.882;2023-03-21T06:34:03;101172.00;;;10.72;97.20
21520;BME280;10921;53.614;9.882;2023-03-21T06:36:30;101176.69;;;10.79;97.11
21520;BME280;10921;53.614;9.882;2023-03-21T06:38:56;101100.66;;;10.34;97.04
21520;BME280;10921;53.614;9.882;2023-03-21T06:41:23;101153.03;;;10.65;97.27
21520;BME280;10921;53.614;9.882;2023-03-21T06:43:49;101188.38;;;10.88;97.30
21520;BME280;10921;53.614;9.882;2023-03-21T06:46:16;101154.31;;;10.71;97.55
21520;BME280;10921;53.614;9.882;2023-03-21T06:48:42;101102.97;;;10.48;97.21
21520;BME280;10921;53.614;9.882;2023-03-21T06:51:11;101175.03;;;10.88;97.08
21520;BME280;10921;53.614;9.882;2023-03-21T06:53:38;101186.75;;;10.97;96.94
21520;BME280;10921;53.614;9.882;2023-03-21T06:56:05;101145.19;;;10.73;97.09
21520;BME280;10921;53.614;9.882;2023-03-21T06:58:32;101186.31;;;11.01;97.01
21520;BME280;10921;53.614;9.882;2023-03-21T07:00:59;101184.47;;;11.02;97.21
21520;BME280;10921;53.614;9.882;2023-03-21T07:03:26;101163.63;;;10.86;96.96
21520;BME280;10921;53.614;9.882;2023-03-21T07:05:53;101132.41;;;10.67;97.16
21520;BME280;10921;53.614;9.882;2023-03-21T07:08:21;101123.69;;;10.65;96.92
21520;BME280;10921;53.614;9.882;2023-03-21T07:10:47;101159.44;;;10.83;96.91
21520;BME280;10921;53.614;9.882;2023-03-21T07:13:14;101132.28;;;10.69;97.00
21520;BME280;10921;53.614;9.882;2023-03-21T07:15:41;101203.63;;;11.07;97.15
21520;BME280;10921;53.614;9.882;2023-03-21T07:18:08;101177.31;;;11.02;97.39
21520;BME280;10921;53.614;9.882;2023-03-21T07:20:35;101144.47;;;10.71;97.28
21520;BME280;10921;53.614;9.882;2023-03-21T07:23:03;101129.19;;;10.73;97.13
21520;BME280;10921;53.614;9.882;2023-03-21T07:25:30;101186.09;;;11.14;97.18
21520;BME280;10921;53.614;9.882;2023-03-21T07:27:57;101156.06;;;10.91;97.06
21520;BME280;10921;53.614;9.882;2023-03-21T07:30:24;101182.84;;;11.10;97.17
21520;BME280;10921;53.614;9.882;2023-03-21T07:32:50;101106.50;;;10.58;97.03
21520;BME280;10921;53.614;9.882;2023-03-21T07:35:18;101115.97;;;10.72;97.17
21520;BME280;10921;53.614;9.882;2023-03-21T07:37:45;101185.25;;;11.13;97.17
21520;BME280;10921;53.614;9.882;2023-03-21T07:40:11;101133.41;;;10.85;97.11
21520;BME280;10921;53.614;9.882;2023-03-21T07:42:39;101191.25;;;11.15;97.54
21520;BME280;10921;53.614;9.882;2023-03-21T07:45:07;101194.78;;;11.16;97.24
21520;BME280;10921;53.614;9.882;2023-03-21T07:47:34;101135.41;;;10.83;97.49
21520;BME280;10921;53.614;9.882;2023-03-21T07:50:01;101183.84;;;11.19;97.73
21520;BME280;10921;53.614;9.882;2023-03-21T07:52:31;101188.47;;;11.17;97.48
21520;BME280;10921;53.614;9.882;2023-03-21T07:54:58;101141.75;;;10.92;97.50
21520;BME280;10921;53.614;9.882;2023-03-21T07:57:27;101156.66;;;11.04;97.60
21520;BME280;10921;53.614;9.882;2023-03-21T07:59:53;101179.47;;;11.18;97.82
21520;BME280;10921;53.614;9.882;2023-03-21T08:02:20;101187.78;;;11.24;97.69
21520;BME280;10921;53.614;9.882;2023-03-21T08:04:46;101153.28;;;11.02;97.73
21520;BME280;10921;53.614;9.882;2023-03-21T08:07:13;101164.28;;;11.09;97.53
21520;BME280;10921;53.614;9.882;2023-03-21T08:09:42;101139.78;;;10.84;97.91
21520;BME280;10921;53.614;9.882;2023-03-21T08:12:08;101157.25;;;11.08;97.94
21520;BME280;10921;53.614;9.882;2023-03-21T08:14:35;101166.81;;;11.10;97.67
21520;BME280;10921;53.614;9.882;2023-03-21T08:17:03;101170.75;;;11.16;98.12
21520;BME280;10921;53.614;9.882;2023-03-21T08:19:30;101174.88;;;11.30;98.30
21520;BME280;10921;53.614;9.882;2023-03-21T08:21:56;101140.25;;;11.09;98.25
21520;BME280;10921;53.614;9.882;2023-03-21T08:24:27;101170.91;;;11.24;98.15
21520;BME280;10921;53.614;9.882;2023-03-21T08:26:53;101137.84;;;11.06;97.83
21520;BME280;10921;53.614;9.882;2023-03-21T08:29:21;101108.59;;;10.95;97.68
21520;BME280;10921;53.614;9.882;2023-03-21T08:31:48;101160.09;;;11.25;97.81
21520;BME280;10921;53.614;9.882;2023-03-21T08:34:14;101164.31;;;11.28;97.59
21520;BME280;10921;53.614;9.882;2023-03-21T08:36:43;101162.91;;;11.24;97.63
21520;BME280;10921;53.614;9.882;2023-03-21T08:39:09;101175.28;;;11.35;97.59
21520;BME280;10921;53.614;9.882;2023-03-21T08:41:37;101183.75;;;11.40;97.87
21520;BME280;10921;53.614;9.882;2023-03-21T08:44:04;101167.97;;;11.37;97.80
21520;BME280;10921;53.614;9.882;2023-03-21T08:46:32;101158.84;;;11.30;97.67
21520;BME280;10921;53.614;9.882;2023-03-21T08:48:58;101185.69;;;11.47;97.88
21520;BME280;10921;53.614;9.882;2023-03-21T08:51:25;101111.13;;;11.06;97.88
21520;BME280;10921;53.614;9.882;2023-03-21T08:53:52;101169.13;;;11.53;97.80
21520;BME280;10921;53.614;9.882;2023-03-21T08:56:19;101178.25;;;11.41;97.53
21520;BME280;10921;53.614;9.882;2023-03-21T08:58:45;101182.34;;;11.55;97.56
21520;BME280;10921;53.614;9.882;2023-03-21T09:01:12;101162.63;;;11.46;97.48
21520;BME280;10921;53.614;9.882;2023-03-21T09:03:42;101161.66;;;11.47;97.80
21520;BME280;10921;53.614;9.882;2023-03-21T09:06:10;101164.06;;;11.50;97.57
21520;BME280;10921;53.614;9.882;2023-03-21T09:08:40;101165.47;;;11.54;97.89
21520;BME280;10921;53.614;9.882;2023-03-21T09:11:11;101175.31;;;11.63;97.54
21520;BME280;10921;53.614;9.882;2023-03-21T09:13:37;101144.50;;;11.40;97.50
21520;BME280;10921;53.614;9.882;2023-03-21T09:16:04;101169.41;;;11.70;97.26
21520;BME280;10921;53.614;9.882;2023-03-21T09:18:31;101047.47;;;11.01;97.01
21520;BME280;10921;53.614;9.882;2023-03-21T09:21:14;101117.78;;;11.40;96.74
21520;BME280;10921;53.614;9.882;2023-03-21T09:23:43;101143.81;;;11.57;96.70
21520;BME280;10921;53.614;9.882;2023-03-21T09:26:10;101178.56;;;11.77;96.63
21520;BME280;10921;53.614;9.882;2023-03-21T09:28:38;101136.78;;;11.56;96.65
21520;BME280;10921;53.614;9.882;2023-03-21T09:31:06;101170.41;;;11.78;96.68
21520;BME280;10921;53.614;9.882;2023-03-21T09:33:37;101149.41;;;11.64;96.27
21520;BME280;10921;53.614;9.882;2023-03-21T09:36:07;101157.19;;;11.77;96.68
21520;BME280;10921;53.614;9.882;2023-03-21T09:38:39;101114.69;;;11.54;96.89
21520;BME280;10921;53.614;9.882;2023-03-21T09:46:43;101173.66;;;12.01;98.07
21520;BME280;10921;53.614;9.882;2023-03-21T09:49:15;101083.47;;;11.55;97.03
21520;BME280;10921;53.614;9.882;2023-03-21T09:51:46;101177.44;;;12.08;96.48
21520;BME280;10921;53.614;9.882;2023-03-21T09:54:21;101169.41;;;12.08;96.29
21520;BME280;10921;53.614;9.882;2023-03-21T09:56:52;101120.19;;;11.82;95.92
21520;BME280;10921;53.614;9.882;2023-03-21T09:59:38;101154.50;;;12.06;96.74
21520;BME280;10921;53.614;9.882;2023-03-21T10:05:25;101114.13;;;11.89;96.31
21520;BME280;10921;53.614;9.882;2023-03-21T10:07:59;101162.59;;;12.23;96.53
21520;BME280;10921;53.614;9.882;2023-03-21T10:10:35;101142.66;;;12.08;96.54
21520;BME280;10921;53.614;9.882;2023-03-21T10:13:05;101145.75;;;12.13;96.91
21520;BME280;10921;53.614;9.882;2023-03-21T10:15:37;101110.72;;;11.97;96.83
21520;BME280;10921;53.614;9.882;2023-03-21T10:18:06;101148.66;;;12.29;96.89
21520;BME280;10921;53.614;9.882;2023-03-21T10:20:37;101160.88;;;12.42;96.65
21520;BME280;10921;53.614;9.882;2023-03-21T10:23:13;101157.50;;;12.40;96.17
21520;BME280;10921;53.614;9.882;2023-03-21T10:25:52;101125.44;;;12.30;96.26
21520;BME280;10921;53.614;9.882;2023-03-21T10:28:22;101128.66;;;12.33;96.14
21520;BME280;10921;53.614;9.882;2023-03-21T10:30:55;101099.38;;;12.22;96.73
21520;BME280;10921;53.614;9.882;2023-03-21T10:33:24;101091.69;;;12.10;95.97
21520;BME280;10921;53.614;9.882;2023-03-21T10:35:59;101133.69;;;12.46;96.47
21520;BME280;10921;53.614;9.882;2023-03-21T10:38:27;101124.69;;;12.38;95.76
21520;BME280;10921;53.614;9.882;2023-03-21T10:40:55;101097.69;;;12.31;95.55
21520;BME280;10921;53.614;9.882;2023-03-21T10:45:52;101113.84;;;12.39;95.93
21520;BME280;10921;53.614;9.882;2023-03-21T10:48:19;101148.84;;;12.65;96.14
21520;BME280;10921;53.614;9.882;2023-03-21T10:50:49;101076.84;;;12.35;96.01
21520;BME280;10921;53.614;9.882;2023-03-21T10:53:22;101149.22;;;12.70;95.90
21520;BME280;10921;53.614;9.882;2023-03-21T10:55:55;101134.97;;;12.69;95.34
21520;BME280;10921;53.614;9.882;2023-03-21T10:58:28;101103.81;;;12.51;95.01
21520;BME280;10921;53.614;9.882;2023-03-21T11:00:57;101123.88;;;12.64;94.33
21520;BME280;10921;53.614;9.882;2023-03-21T11:03:30;101125.47;;;12.57;94.37
21520;BME280;10921;53.614;9.882;2023-03-21T11:08:29;101124.66;;;12.47;94.53
21520;BME280;10921;53.614;9.882;2023-03-21T11:11:05;101125.66;;;12.46;94.85
21520;BME280;10921;53.614;9.882;2023-03-21T11:13:38;101092.63;;;12.28;95.32
21520;BME280;10921;53.614;9.882;2023-03-21T11:16:11;101121.44;;;12.44;95.71
21520;BME280;10921;53.614;9.882;2023-03-21T11:18:48;101043.16;;;11.95;95.96
21520;BME280;10921;53.614;9.882;2023-03-21T11:21:15;101120.72;;;12.42;96.08
21520;BME280;10921;53.614;9.882;2023-03-21T11:23:44;101104.72;;;12.32;96.18
21520;BME280;10921;53.614;9.882;2023-03-21T11:26:24;101110.16;;;12.40;97.06
21520;BME280;10921;53.614;9.882;2023-03-21T11:28:53;101097.13;;;12.27;96.73
21520;BME280;10921;53.614;9.882;2023-03-21T11:31:20;101096.25;;;12.37;96.73
21520;BME280;10921;53.614;9.882;2023-03-21T11:33:54;101097.06;;;12.47;97.68
21520;BME280;10921;53.614;9.882;2023-03-21T11:38:52;101086.22;;;12.48;96.59
21520;BME280;10921;53.614;9.882;2023-03-21T11:41:26;101084.75;;;12.54;96.70
21520;BME280;10921;53.614;9.882;2023-03-21T11:43:56;101070.88;;;12.41;96.23
21520;BME280;10921;53.614;9.882;2023-03-21T11:46:24;101095.28;;;12.65;95.71
21520;BME280;10921;53.614;9.882;2023-03-21T11:48:52;101064.16;;;12.37;95.31
21520;BME280;10921;53.614;9.882;2023-03-21T11:51:48;101088.81;;;12.58;95.54
21520;BME280;10921;53.614;9.882;2023-03-21T11:54:44;101095.16;;;12.57;95.95
21520;BME280;10921;53.614;9.882;2023-03-21T12:05:44;101081.94;;;12.55;96.42
21520;BME280;10921;53.614;9.882;2023-03-21T12:08:35;101081.50;;;12.60;97.00
21520;BME280;10921;53.614;9.882;2023-03-21T12:11:25;101074.56;;;12.67;97.53
21520;BME280;10921;53.614;9.882;2023-03-21T12:14:09;101050.50;;;12.57;96.75
21520;BME280;10921;53.614;9.882;2023-03-21T12:16:52;101016.75;;;12.47;97.66
21520;BME280;10921;53.614;9.882;2023-03-21T12:20:19;101060.81;;;12.80;96.66
21520;BME280;10921;53.614;9.882;2023-03-21T12:25:32;101027.22;;;12.67;95.62
21520;BME280;10921;53.614;9.882;2023-03-21T12:28:32;101051.16;;;12.87;95.53
21520;BME280;10921;53.614;9.882;2023-03-21T12:36:55;101049.25;;;12.79;94.77
21520;BME280;10921;53.614;9.882;2023-03-21T12:39:29;101025.81;;;12.63;94.87
21520;BME280;10921;53.614;9.882;2023-03-21T12:44:38;101002.69;;;12.45;93.63
21520;BME280;10921;53.614;9.882;2023-03-21T12:47:09;101010.50;;;12.56;93.92
21520;BME280;10921;53.614;9.882;2023-03-21T12:50:07;101047.19;;;12.73;94.78
21520;BME280;10921;53.614;9.882;2023-03-21T12:52:41;100955.94;;;12.21;94.55
21520;BME280;10921;53.614;9.882;2023-03-21T12:55:17;100999.72;;;12.48;95.04
21520;BME280;10921;53.614;9.882;2023-03-21T12:58:00;101030.03;;;12.66;95.38
21520;BME280;10921;53.614;9.882;2023-03-21T13:00:52;101029.56;;;12.71;95.89
21520;BME280;10921;53.614;9.882;2023-03-21T13:03:29;101013.28;;;12.64;94.98
21520;BME280;10921;53.614;9.882;2023-03-21T13:06:08;100998.44;;;12.52;94.77
21520;BME280;10921;53.614;9.882;2023-03-21T13:08:36;101016.34;;;12.69;95.04
21520;BME280;10921;53.614;9.882;2023-03-21T13:11:05;101012.50;;;12.72;95.32
21520;BME280;10921;53.614;9.882;2023-03-21T13:13:47;100996.94;;;12.67;96.33
21520;BME280;10921;53.614;9.882;2023-03-21T13:16:27;101011.22;;;12.76;95.03
21520;BME280;10921;53.614;9.882;2023-03-21T13:26:49;100977.38;;;12.57;94.92
21520;BME280;10921;53.614;9.882;2023-03-21T13:29:21;100992.63;;;12.74;95.28
21520;BME280;10921;53.614;9.882;2023-03-21T13:31:49;100970.59;;;12.62;95.02
21520;BME280;10921;53.614;9.882;2023-03-21T13:34:23;100959.66;;;12.56;94.88
21520;BME280;10921;53.614;9.882;2023-03-21T13:36:51;100973.28;;;12.62;94.47
21520;BME280;10921;53.614;9.882;2023-03-21T13:39:23;100949.00;;;12.46;94.53
21520;BME280;10921;53.614;9.882;2023-03-21T13:41:52;100944.81;;;12.44;94.17
21520;BME280;10921;53.614;9.882;2023-03-21T13:44:31;100986.81;;;12.61;95.04
21520;BME280;10921;53.614;9.882;2023-03-21T13:47:01;100995.09;;;12.67;95.82
21520;BME280;10921;53.614;9.882;2023-03-21T13:49:35;100979.84;;;12.68;96.20
21520;BME280;10921;53.614;9.882;2023-03-21T13:57:05;100963.56;;;12.61;94.82
21520;BME280;10921;53.614;9.882;2023-03-21T14:02:27;100970.06;;;12.77;96.11
21520;BME280;10921;53.614;9.882;2023-03-21T14:05:00;100971.75;;;12.78;95.56
21520;BME280;10921;53.614;9.882;2023-03-21T14:10:00;100972.91;;;12.75;94.85
21520;BME280;10921;53.614;9.882;2023-03-21T14:12:38;100971.06;;;12.76;95.11
21520;BME280;10921;53.614;9.882;2023-03-21T14:15:12;100915.38;;;12.44;94.40
21520;BME280;10921;53.614;9.882;2023-03-21T14:18:00;100967.69;;;12.74;95.64
21520;BME280;10921;53.614;9.882;2023-03-21T14:20:54;100963.78;;;12.68;94.83
21520;BME280;10921;53.614;9.882;2023-03-21T14:23:22;100931.13;;;12.47;95.18
21520;BME280;10921;53.614;9.882;2023-03-21T14:25:49;100932.66;;;12.49;95.53
21520;BME280;10921;53.614;9.882;2023-03-21T14:28:21;100964.47;;;12.70;95.76
21520;BME280;10921;53.614;9.882;2023-03-21T14:30:55;100964.31;;;12.72;95.68
21520;BME280;10921;53.614;9.882;2023-03-21T14:33:37;100951.16;;;12.60;95.50
21520;BME280;10921;53.614;9.882;2023-03-21T14:36:09;100934.72;;;12.55;94.53
21520;BME280;10921;53.614;9.882;2023-03-21T14:38:38;100959.44;;;12.67;94.47